Terminal Aerodrome Forecast
Issued by NWS Cleveland, OH

Home | Current Version | Previous Version | Graphics & Text | Print | Product List | Glossary Off
Versions: 1 2 3 4 5 6 7 8 9 10 11 12 13 14

000
FTUS41 KCLE 020539
TAFTOL
TAF
KTOL 020539Z 0206/0306 24006KT P6SM SCT060 BKN100
     FM021500 23012KT P6SM SCT150
     FM021700 23015G25KT P6SM SCT050
     FM030100 23012G22KT P6SM VCSH BKN060=

USA.gov is the U.S. government's official web portal to all federal, state and local government web resources and services.